createdAt,value
2022-10-07T00:00:21.144Z,101311.53
2022-10-07T00:03:06.939Z,101308.06
2022-10-07T00:06:11.529Z,101303.69
2022-10-07T00:08:57.006Z,101293.22
2022-10-07T00:11:43.096Z,101281.84
2022-10-07T00:14:28.717Z,101277.53
2022-10-07T00:17:14.442Z,101270.56
2022-10-07T00:19:59.843Z,101263.56
2022-10-07T00:22:45.000Z,101256.56
2022-10-07T00:25:30.610Z,101257.41
2022-10-07T00:28:16.320Z,101252.19
2022-10-07T00:31:03.721Z,101246.13
2022-10-07T00:33:51.380Z,101249.56
2022-10-07T00:36:40.031Z,101246.13
2022-10-07T00:39:26.142Z,101237.41
2022-10-07T00:42:13.904Z,101234.75
2022-10-07T00:44:59.636Z,101226.94
2022-10-07T00:47:48.657Z,101222.56
2022-10-07T00:50:34.564Z,101210.34
2022-10-07T00:53:22.528Z,101217.31
2022-10-07T00:56:08.952Z,101206.00
2022-10-07T00:58:55.014Z,101205.13
2022-10-07T01:01:42.187Z,101189.41
2022-10-07T01:04:28.371Z,101185.94
2022-10-07T01:07:20.356Z,101186.81
2022-10-07T01:10:08.155Z,101178.97
2022-10-07T01:13:18.728Z,101171.13
2022-10-07T01:16:10.638Z,101172.88
2022-10-07T01:19:18.303Z,101183.34
2022-10-07T01:22:07.639Z,101179.84
2022-10-07T01:25:20.454Z,101179.84
2022-10-07T01:28:11.870Z,101172.81
2022-10-07T01:31:05.328Z,101164.97
2022-10-07T01:33:54.258Z,101164.06
2022-10-07T01:36:44.811Z,101161.44
2022-10-07T01:39:35.585Z,101151.81
2022-10-07T01:42:22.899Z,101130.88
2022-10-07T01:45:12.745Z,101126.50
2022-10-07T01:47:59.213Z,101117.72
2022-10-07T01:50:45.119Z,101114.19
2022-10-07T01:53:33.433Z,101115.09
2022-10-07T01:56:45.908Z,101115.97
2022-10-07T01:59:50.686Z,101094.19
2022-10-07T02:02:48.566Z,101088.09
2022-10-07T02:05:54.608Z,101082.84
2022-10-07T02:08:46.644Z,101080.25
2022-10-07T02:11:39.129Z,101072.41
2022-10-07T02:14:38.457Z,101082.03
2022-10-07T02:17:27.995Z,101067.19
2022-10-07T02:20:16.546Z,101062.88
2022-10-07T02:23:05.057Z,101070.72
2022-10-07T02:25:53.904Z,101051.53
2022-10-07T02:28:43.443Z,101045.38
2022-10-07T02:31:33.430Z,101041.03
2022-10-07T02:34:21.908Z,101036.69
2022-10-07T02:37:19.723Z,101034.09
2022-10-07T02:40:12.168Z,101021.00
2022-10-07T02:43:09.505Z,101014.06
2022-10-07T02:46:02.370Z,100990.50
2022-10-07T02:48:58.877Z,100992.25
2022-10-07T02:51:51.695Z,100981.78
2022-10-07T02:54:42.817Z,100977.38
2022-10-07T02:57:32.163Z,100980.00
2022-10-07T03:00:19.336Z,100972.13
2022-10-07T03:03:09.213Z,100966.84
2022-10-07T03:06:23.123Z,100964.19
2022-10-07T03:09:11.299Z,100972.94
2022-10-07T03:11:57.155Z,100956.34
2022-10-07T03:14:44.965Z,100949.31
2022-10-07T03:17:31.447Z,100940.63
2022-10-07T03:20:17.915Z,100947.63
2022-10-07T03:23:03.560Z,100939.78
2022-10-07T03:25:54.076Z,100937.22
2022-10-07T03:28:41.491Z,100920.66
2022-10-07T03:31:28.587Z,100924.97
2022-10-07T03:34:16.942Z,100917.09
2022-10-07T03:37:05.986Z,100897.00
2022-10-07T03:39:52.812Z,100902.19
2022-10-07T03:42:38.670Z,100921.34
2022-10-07T03:45:24.263Z,100905.59
2022-10-07T03:48:09.789Z,100899.50
2022-10-07T03:50:57.821Z,100897.69
2022-10-07T03:53:46.511Z,100894.16
2022-10-07T03:56:32.171Z,100882.78
2022-10-07T03:59:18.530Z,100885.34
2022-10-07T04:02:04.740Z,100903.69
2022-10-07T04:04:52.846Z,100901.16
2022-10-07T04:07:41.030Z,100891.66
2022-10-07T04:10:26.368Z,100887.38
2022-10-07T04:13:11.703Z,100891.75
2022-10-07T04:15:57.723Z,100895.25
2022-10-07T04:18:45.026Z,100870.00
2022-10-07T04:21:30.921Z,100875.28
2022-10-07T04:24:16.763Z,100870.16
2022-10-07T04:27:05.134Z,100861.44
2022-10-07T04:29:51.112Z,100871.00
2022-10-07T04:32:36.526Z,100853.53
2022-10-07T04:35:23.468Z,100847.41
2022-10-07T04:38:13.741Z,100839.53
2022-10-07T04:41:04.707Z,100836.06
2022-10-07T04:43:55.276Z,100828.19
2022-10-07T04:46:46.277Z,100831.66
2022-10-07T04:49:33.472Z,100833.38
2022-10-07T04:52:21.351Z,100831.56
2022-10-07T04:55:08.366Z,100841.97
2022-10-07T04:57:53.968Z,100819.97
2022-10-07T05:00:45.810Z,100832.22
2022-10-07T05:03:31.845Z,100821.66
2022-10-07T05:06:18.541Z,100824.19
2022-10-07T05:09:04.700Z,100804.94
2022-10-07T05:11:55.856Z,100804.94
2022-10-07T05:14:42.337Z,100795.34
2022-10-07T05:17:29.964Z,100789.22
2022-10-07T05:20:15.337Z,100781.31
2022-10-07T05:23:01.219Z,100783.94
2022-10-07T05:25:46.766Z,100788.38
2022-10-07T05:28:32.642Z,100783.97
2022-10-07T05:31:18.199Z,100791.81
2022-10-07T05:34:08.511Z,100791.75
2022-10-07T05:36:55.444Z,100796.03
2022-10-07T05:39:41.294Z,100809.16
2022-10-07T05:42:34.265Z,100811.81
2022-10-07T05:45:20.116Z,100812.69
2022-10-07T05:48:05.662Z,100816.28
2022-10-07T05:50:51.040Z,100826.78
2022-10-07T05:53:41.189Z,100834.69
2022-10-07T05:56:27.249Z,100826.88
2022-10-07T05:59:14.254Z,100834.75
2022-10-07T06:02:01.742Z,100830.34
2022-10-07T06:04:49.132Z,100825.13
2022-10-07T06:07:35.700Z,100832.19
2022-10-07T06:10:40.962Z,100839.16
2022-10-07T06:13:27.744Z,100831.34
2022-10-07T06:16:13.198Z,100840.13
2022-10-07T06:19:00.049Z,100854.13
2022-10-07T06:21:48.240Z,100854.97
2022-10-07T06:24:33.917Z,100862.81
2022-10-07T06:27:20.659Z,100869.78
2022-10-07T06:30:07.648Z,100909.94
2022-10-07T06:32:53.326Z,100931.88
2022-10-07T06:35:40.343Z,100942.50
2022-10-07T06:38:26.628Z,100958.34
2022-10-07T06:41:12.782Z,100949.75
2022-10-07T06:43:58.489Z,100938.50
2022-10-07T06:46:44.929Z,100924.59
2022-10-07T06:49:31.463Z,100938.59
2022-10-07T06:52:17.572Z,100935.13
2022-10-07T06:55:03.073Z,100939.50
2022-10-07T06:57:50.881Z,100953.44
2022-10-07T07:00:38.583Z,100941.22
2022-10-07T07:03:24.514Z,100949.03
2022-10-07T07:06:15.013Z,100956.03
2022-10-07T07:09:05.378Z,100967.31
2022-10-07T07:11:56.584Z,100956.88
2022-10-07T07:14:51.363Z,100969.03
2022-10-07T07:17:39.592Z,100977.75
2022-10-07T07:20:26.088Z,100971.66
2022-10-07T07:23:12.501Z,100983.84
2022-10-07T07:26:00.982Z,100972.53
2022-10-07T07:29:00.339Z,100967.31
2022-10-07T07:31:51.112Z,100961.22
2022-10-07T07:34:39.796Z,100954.28
2022-10-07T07:37:30.225Z,100942.94
2022-10-07T07:40:17.393Z,100964.72
2022-10-07T07:43:03.604Z,100960.34
2022-10-07T07:45:49.369Z,100954.28
2022-10-07T07:48:34.848Z,100962.06
2022-10-07T07:51:20.771Z,100969.00
2022-10-07T07:54:06.855Z,100953.34
2022-10-07T07:56:55.976Z,100951.59
2022-10-07T07:59:42.214Z,100964.63
2022-10-07T08:02:29.175Z,100953.34
2022-10-07T08:05:18.973Z,100954.22
2022-10-07T08:08:07.274Z,100961.25
2022-10-07T08:10:52.657Z,100966.47
2022-10-07T08:13:41.398Z,100965.59
2022-10-07T08:16:29.876Z,100957.75
2022-10-07T08:19:18.180Z,100963.84
2022-10-07T08:22:04.455Z,100967.34
2022-10-07T08:24:50.727Z,100956.88
2022-10-07T08:27:38.507Z,100979.50
2022-10-07T08:30:24.262Z,100990.81
2022-10-07T08:33:10.715Z,100988.19
2022-10-07T08:36:00.433Z,100988.19
2022-10-07T08:38:49.588Z,100989.94
2022-10-07T08:42:08.788Z,100998.66
2022-10-07T08:44:54.248Z,100990.81
2022-10-07T08:47:44.323Z,100987.31
2022-10-07T08:50:36.972Z,100997.75
2022-10-07T08:53:34.558Z,101002.13
2022-10-07T08:56:24.056Z,100997.72
2022-10-07T08:59:24.177Z,100993.38
2022-10-07T09:02:21.940Z,100985.50
2022-10-07T09:05:27.109Z,100992.50
2022-10-07T09:08:22.330Z,101014.25
2022-10-07T09:11:16.063Z,101009.03
2022-10-07T09:14:31.371Z,100995.94
2022-10-07T09:17:40.083Z,101012.47
2022-10-07T09:20:35.127Z,101003.72
2022-10-07T09:23:29.892Z,101008.94
2022-10-07T09:26:19.127Z,101001.13
2022-10-07T09:29:04.539Z,100995.88
2022-10-07T09:31:50.125Z,100994.09
2022-10-07T09:34:35.573Z,100988.84
2022-10-07T09:37:30.292Z,101005.44
2022-10-07T09:40:32.415Z,100993.22
2022-10-07T09:43:19.508Z,100981.88
2022-10-07T09:46:05.344Z,100976.63
2022-10-07T09:48:55.026Z,100974.84
2022-10-07T09:51:40.364Z,100968.72
2022-10-07T09:54:27.636Z,100966.09
2022-10-07T09:57:29.361Z,100951.25
2022-10-07T10:00:26.393Z,100952.06
2022-10-07T10:03:12.276Z,100950.25
2022-10-07T10:06:02.858Z,100946.72
2022-10-07T10:08:56.427Z,100949.28
2022-10-07T10:11:42.140Z,100947.50
2022-10-07T10:14:49.251Z,100943.94
2022-10-07T10:17:34.794Z,100943.91
2022-10-07T10:20:44.766Z,100950.81
2022-10-07T10:23:37.110Z,100942.94
2022-10-07T10:26:42.133Z,100939.38
2022-10-07T10:29:39.372Z,100934.94
2022-10-07T10:32:54.238Z,100931.41
2022-10-07T10:36:09.865Z,100928.66
2022-10-07T10:39:20.216Z,100932.16
2022-10-07T10:42:12.017Z,100932.19
2022-10-07T10:45:07.948Z,100934.91
2022-10-07T10:47:53.229Z,100927.94
2022-10-07T10:50:44.567Z,100933.13
2022-10-07T10:53:42.210Z,100945.19
2022-10-07T10:56:52.019Z,100955.53
2022-10-07T10:59:56.045Z,100936.19
2022-10-07T11:03:04.370Z,100938.09
2022-10-07T11:05:51.244Z,100929.50
2022-10-07T11:08:38.729Z,100939.97
2022-10-07T11:11:25.682Z,100964.34
2022-10-07T11:14:17.832Z,100956.56
2022-10-07T11:17:06.840Z,100967.94
2022-10-07T11:20:04.436Z,100968.97
2022-10-07T11:23:00.751Z,100965.53
2022-10-07T11:26:32.361Z,100969.97
2022-10-07T11:29:53.913Z,100969.91
2022-10-07T11:33:05.412Z,100961.09
2022-10-07T11:35:57.629Z,100948.72
2022-10-07T11:38:43.887Z,100950.34
2022-10-07T11:41:40.771Z,100962.47
2022-10-07T11:44:32.335Z,100954.50
2022-10-07T11:47:24.887Z,100960.47
2022-10-07T11:50:23.427Z,100967.47
2022-10-07T11:53:15.706Z,100964.91
2022-10-07T11:56:05.840Z,100975.41
2022-10-07T11:59:03.479Z,100952.75
2022-10-07T12:01:52.778Z,100948.50
2022-10-07T12:04:38.973Z,100942.44
2022-10-07T12:07:33.440Z,100956.41
2022-10-07T12:10:23.628Z,100971.28
2022-10-07T12:13:09.438Z,100965.13
2022-10-07T12:15:57.242Z,100964.22
2022-10-07T12:19:09.857Z,100975.50
2022-10-07T12:22:04.432Z,100957.19
2022-10-07T12:25:32.439Z,100966.78
2022-10-07T12:28:43.452Z,100959.72
2022-10-07T12:31:31.977Z,100970.09
2022-10-07T12:34:33.433Z,100967.41
2022-10-07T12:37:40.797Z,100969.75
2022-10-07T12:40:30.880Z,100977.38
2022-10-07T12:43:32.454Z,100973.66
2022-10-07T12:46:21.035Z,100966.47
2022-10-07T12:49:37.380Z,100978.16
2022-10-07T12:52:44.826Z,100988.38
2022-10-07T12:55:41.059Z,100993.97
2022-10-07T12:58:58.857Z,100992.31
2022-10-07T13:01:47.398Z,100991.41
2022-10-07T13:04:54.623Z,100981.59
2022-10-07T13:08:17.876Z,100979.81
2022-10-07T13:11:25.506Z,100982.31
2022-10-07T13:14:26.543Z,100981.47
2022-10-07T13:17:29.213Z,100975.47
2022-10-07T13:20:24.443Z,100988.41
2022-10-07T13:23:21.989Z,100982.97
2022-10-07T13:26:12.873Z,101005.56
2022-10-07T13:29:00.901Z,101009.78
2022-10-07T13:32:03.366Z,101020.50
2022-10-07T13:34:48.757Z,101034.97
2022-10-07T13:37:37.822Z,101043.91
2022-10-07T13:40:35.557Z,101038.88
2022-10-07T13:43:24.984Z,101063.59
2022-10-07T13:46:11.796Z,101055.16
2022-10-07T13:48:58.464Z,101057.84
2022-10-07T13:51:43.770Z,101063.91
2022-10-07T13:54:32.161Z,101059.56
2022-10-07T13:57:21.257Z,101063.00
2022-10-07T14:00:07.799Z,101060.28
2022-10-07T14:02:58.125Z,101061.78
2022-10-07T14:05:54.077Z,101045.94
2022-10-07T14:08:50.695Z,101045.09
2022-10-07T14:11:36.199Z,101038.16
2022-10-07T14:14:36.366Z,101042.66
2022-10-07T14:17:47.766Z,101052.19
2022-10-07T14:20:39.218Z,101044.16
2022-10-07T14:23:32.934Z,101040.41
2022-10-07T14:26:19.116Z,101039.38
2022-10-07T14:29:35.484Z,101036.72
2022-10-07T14:32:40.435Z,101039.25
2022-10-07T14:35:27.136Z,101044.41
2022-10-07T14:38:39.755Z,101039.16
2022-10-07T14:41:27.639Z,101025.19
2022-10-07T14:44:13.611Z,101028.75
2022-10-07T14:47:15.748Z,101043.41
2022-10-07T14:50:01.474Z,101030.22
2022-10-07T14:52:52.576Z,101041.63
2022-10-07T14:55:39.091Z,101043.44
2022-10-07T14:58:25.393Z,101031.34
2022-10-07T15:01:11.020Z,101030.50
2022-10-07T15:03:58.135Z,101033.09
2022-10-07T15:06:47.455Z,101026.94
2022-10-07T15:09:35.437Z,101032.97
2022-10-07T15:12:20.971Z,101034.81
2022-10-07T15:15:06.991Z,101022.63
2022-10-07T15:17:52.566Z,101025.25
2022-10-07T15:20:39.761Z,101025.19
2022-10-07T15:23:25.333Z,101034.81
2022-10-07T15:26:11.582Z,101033.94
2022-10-07T15:28:59.047Z,101039.31
2022-10-07T15:31:44.443Z,101031.78
2022-10-07T15:34:31.085Z,101045.88
2022-10-07T15:37:17.639Z,101042.41
2022-10-07T15:40:02.919Z,101039.72
2022-10-07T15:42:48.799Z,101061.63
2022-10-07T15:45:34.876Z,101082.78
2022-10-07T15:48:23.341Z,101095.19
2022-10-07T15:51:09.001Z,101078.78
2022-10-07T15:53:54.603Z,101090.09
2022-10-07T15:56:40.962Z,101089.19
2022-10-07T15:59:27.252Z,101093.50
2022-10-07T16:02:17.078Z,101101.31
2022-10-07T16:05:03.122Z,101112.59
2022-10-07T16:07:48.849Z,101117.81
2022-10-07T16:10:37.276Z,101114.31
2022-10-07T16:13:23.260Z,101126.50
2022-10-07T16:16:11.771Z,101136.06
2022-10-07T16:18:59.049Z,101141.31
2022-10-07T16:21:44.623Z,101136.94
2022-10-07T16:24:35.022Z,101143.94
2022-10-07T16:27:21.133Z,101150.91
2022-10-07T16:30:25.768Z,101155.31
2022-10-07T16:33:11.350Z,101161.44
2022-10-07T16:35:57.299Z,101162.28
2022-10-07T16:38:42.776Z,101171.81
2022-10-07T16:41:29.114Z,101172.63
2022-10-07T16:44:15.618Z,101186.50
2022-10-07T16:47:01.238Z,101192.53
2022-10-07T16:49:46.927Z,101202.88
2022-10-07T16:52:34.364Z,101198.50
2022-10-07T16:55:19.838Z,101201.06
2022-10-07T16:58:05.304Z,101197.53
2022-10-07T17:00:50.695Z,101195.81
2022-10-07T17:03:37.644Z,101191.44
2022-10-07T17:06:25.306Z,101202.69
2022-10-07T17:09:10.859Z,101201.78
2022-10-07T17:11:56.822Z,101211.31
2022-10-07T17:14:43.472Z,101211.28
2022-10-07T17:17:29.278Z,101216.44
2022-10-07T17:20:15.216Z,101221.59
2022-10-07T17:23:01.172Z,101224.16
2022-10-07T17:25:47.457Z,101234.47
2022-10-07T17:28:32.887Z,101229.19
2022-10-07T17:31:18.840Z,101240.41
2022-10-07T17:34:05.208Z,101242.06
2022-10-07T17:36:51.464Z,101244.59
2022-10-07T17:39:36.754Z,101241.97
2022-10-07T17:42:22.306Z,101261.03
2022-10-07T17:45:10.507Z,101267.94
2022-10-07T17:47:57.699Z,101267.88
2022-10-07T17:50:43.120Z,101268.72
2022-10-07T17:53:34.157Z,101271.22
2022-10-07T17:56:20.332Z,101289.41
2022-10-07T17:59:05.587Z,101289.38
2022-10-07T18:01:50.981Z,101293.69
2022-10-07T18:04:36.556Z,101293.56
2022-10-07T18:07:23.131Z,101296.97
2022-10-07T18:10:09.100Z,101308.25
2022-10-07T18:13:13.171Z,101306.53
2022-10-07T18:16:00.514Z,101316.94
2022-10-07T18:18:47.599Z,101310.78
2022-10-07T18:21:32.861Z,101317.69
2022-10-07T18:24:18.659Z,101321.09
2022-10-07T18:27:04.048Z,101330.59
2022-10-07T18:29:49.515Z,101329.69
2022-10-07T18:32:35.275Z,101334.94
2022-10-07T18:35:20.834Z,101335.03
2022-10-07T18:38:06.176Z,101335.03
2022-10-07T18:40:51.398Z,101338.50
2022-10-07T18:43:37.874Z,101344.53
2022-10-07T18:46:23.644Z,101349.69
2022-10-07T18:49:09.573Z,101360.94
2022-10-07T18:51:54.963Z,101363.47
2022-10-07T18:54:40.274Z,101370.34
2022-10-07T18:57:25.822Z,101383.28
2022-10-07T19:00:12.332Z,101390.16
2022-10-07T19:02:57.949Z,101398.84
2022-10-07T19:05:43.411Z,101394.47
2022-10-07T19:08:28.958Z,101397.84
2022-10-07T19:11:17.062Z,101396.06
2022-10-07T19:14:02.879Z,101411.59
2022-10-07T19:16:49.574Z,101408.88
2022-10-07T19:19:35.041Z,101416.63
2022-10-07T19:22:20.442Z,101419.16
2022-10-07T19:25:25.031Z,101413.97
2022-10-07T19:28:11.329Z,101425.19
2022-10-07T19:30:59.112Z,101427.81
2022-10-07T19:33:46.888Z,101426.84
2022-10-07T19:36:35.494Z,101423.28
2022-10-07T19:39:22.175Z,101421.50
2022-10-07T19:42:08.007Z,101424.97
2022-10-07T19:44:53.735Z,101438.00
2022-10-07T19:47:39.310Z,101441.44
2022-10-07T19:50:25.137Z,101438.88
2022-10-07T19:53:10.404Z,101445.88
2022-10-07T19:55:57.556Z,101437.19
2022-10-07T19:58:48.929Z,101450.13
2022-10-07T20:01:37.343Z,101447.47
2022-10-07T20:04:22.714Z,101454.41
2022-10-07T20:07:08.386Z,101460.41
2022-10-07T20:09:54.039Z,101472.47
2022-10-07T20:12:40.630Z,101468.88
2022-10-07T20:15:26.290Z,101473.97
2022-10-07T20:18:11.591Z,101480.81
2022-10-07T20:21:02.597Z,101492.88
2022-10-07T20:23:48.566Z,101494.63
2022-10-07T20:26:36.897Z,101495.41
2022-10-07T20:29:25.341Z,101498.91
2022-10-07T20:32:11.713Z,101506.53
2022-10-07T20:34:57.655Z,101511.75
2022-10-07T20:37:42.973Z,101516.94
2022-10-07T20:40:46.875Z,101521.25
2022-10-07T20:43:32.597Z,101526.38
2022-10-07T20:46:17.909Z,101531.56
2022-10-07T20:49:04.541Z,101530.59
2022-10-07T20:51:54.246Z,101536.63
2022-10-07T20:54:40.000Z,101539.13
2022-10-07T20:57:28.678Z,101534.72
2022-10-07T21:00:16.926Z,101535.56
2022-10-07T21:03:02.793Z,101538.13
2022-10-07T21:05:55.956Z,101538.16
2022-10-07T21:08:41.762Z,101537.25
2022-10-07T21:11:27.577Z,101543.34
2022-10-07T21:14:13.420Z,101547.66
2022-10-07T21:17:00.015Z,101551.16
2022-10-07T21:19:45.813Z,101558.09
2022-10-07T21:22:31.483Z,101557.97
2022-10-07T21:25:18.195Z,101567.53
2022-10-07T21:28:03.966Z,101570.19
2022-10-07T21:31:00.062Z,101573.56
2022-10-07T21:33:48.898Z,101571.81
2022-10-07T21:36:40.026Z,101576.09
2022-10-07T21:39:26.564Z,101581.22
2022-10-07T21:42:12.644Z,101589.91
2022-10-07T21:44:58.505Z,101591.78
2022-10-07T21:47:44.026Z,101591.59
2022-10-07T21:50:29.607Z,101600.34
2022-10-07T21:53:15.278Z,101603.78
2022-10-07T21:56:05.611Z,101609.00
2022-10-07T21:58:53.131Z,101608.94
2022-10-07T22:01:39.019Z,101612.44
2022-10-07T22:04:25.136Z,101614.16
2022-10-07T22:07:30.557Z,101610.63
2022-10-07T22:10:16.276Z,101623.56
2022-10-07T22:13:01.633Z,101623.41
2022-10-07T22:15:46.933Z,101622.56
2022-10-07T22:18:33.778Z,101627.59
2022-10-07T22:21:27.246Z,101630.31
2022-10-07T22:24:14.046Z,101627.66
2022-10-07T22:27:00.258Z,101638.03
2022-10-07T22:29:45.540Z,101636.19
2022-10-07T22:32:30.959Z,101639.47
2022-10-07T22:35:30.203Z,101643.78
2022-10-07T22:38:15.500Z,101644.53
2022-10-07T22:41:05.630Z,101647.09
2022-10-07T22:43:52.704Z,101660.00
2022-10-07T22:46:38.265Z,101658.34
2022-10-07T22:49:28.777Z,101651.50
2022-10-07T22:52:15.226Z,101654.88
2022-10-07T22:55:00.583Z,101658.34
2022-10-07T22:57:45.905Z,101652.19
2022-10-07T23:00:31.529Z,101658.13
2022-10-07T23:03:17.172Z,101652.06
2022-10-07T23:06:03.603Z,101663.38
2022-10-07T23:08:49.007Z,101670.34
2022-10-07T23:11:34.267Z,101665.09
2022-10-07T23:14:20.254Z,101669.44
2022-10-07T23:17:05.613Z,101678.25
2022-10-07T23:19:51.045Z,101676.56
2022-10-07T23:22:40.074Z,101673.88
2022-10-07T23:25:27.874Z,101689.31
2022-10-07T23:28:13.526Z,101692.72
2022-10-07T23:31:06.406Z,101695.16
2022-10-07T23:33:52.172Z,101687.34
2022-10-07T23:36:37.995Z,101695.16
2022-10-07T23:39:23.411Z,101690.72
2022-10-07T23:42:09.153Z,101697.72
2022-10-07T23:44:54.598Z,101700.16
2022-10-07T23:47:40.006Z,101705.47
2022-10-07T23:50:25.439Z,101697.75
2022-10-07T23:53:10.773Z,101710.06
2022-10-07T23:55:56.906Z,101701.44
2022-10-07T23:58:42.151Z,101702.25
